createdAt,value
2019-05-14T00:01:17.989Z,43.09
2019-05-14T00:03:48.308Z,43.11
2019-05-14T00:06:21.745Z,43.06
2019-05-14T00:08:52.254Z,42.96
2019-05-14T00:11:22.776Z,43.02
2019-05-14T00:13:53.050Z,42.96
2019-05-14T00:16:24.350Z,42.92
2019-05-14T00:18:56.249Z,42.91
2019-05-14T00:21:26.633Z,42.89
2019-05-14T00:23:56.927Z,42.88
2019-05-14T00:26:31.735Z,42.83
2019-05-14T00:29:01.779Z,42.85
2019-05-14T00:31:32.263Z,42.81
2019-05-14T00:34:02.553Z,42.88
2019-05-14T00:36:32.850Z,42.85
2019-05-14T00:39:03.447Z,42.79
2019-05-14T00:41:33.840Z,42.76
2019-05-14T00:44:04.158Z,42.73
2019-05-14T00:46:34.646Z,42.70
2019-05-14T00:49:04.891Z,42.67
2019-05-14T00:51:35.159Z,42.70
2019-05-14T00:54:05.523Z,42.72
2019-05-14T00:56:35.754Z,42.69
2019-05-14T00:59:06.104Z,42.63
2019-05-14T01:01:36.587Z,42.65
2019-05-14T01:04:06.868Z,42.66
2019-05-14T01:06:37.705Z,42.69
2019-05-14T01:09:47.572Z,42.64
2019-05-14T01:12:21.561Z,42.61
2019-05-14T01:15:06.728Z,42.60
2019-05-14T01:17:24.044Z,42.56
2019-05-14T01:19:54.409Z,42.53
2019-05-14T01:22:24.696Z,42.47
2019-05-14T01:24:55.092Z,42.53
2019-05-14T01:27:25.376Z,42.49
2019-05-14T01:29:55.699Z,42.50
2019-05-14T01:32:26.121Z,42.47
2019-05-14T01:34:56.409Z,42.46
2019-05-14T01:37:26.768Z,42.50
2019-05-14T01:39:57.198Z,42.47
2019-05-14T01:42:27.412Z,42.42
2019-05-14T01:47:28.026Z,42.42
2019-05-14T01:49:58.451Z,42.41
2019-05-14T01:52:31.821Z,42.38
2019-05-14T01:55:02.295Z,42.29
2019-05-14T01:57:32.727Z,42.30
2019-05-14T02:00:02.988Z,42.32
2019-05-14T02:02:33.342Z,42.34
2019-05-14T02:05:03.652Z,42.32
2019-05-14T02:07:34.838Z,42.31
2019-05-14T02:10:07.518Z,42.31
2019-05-14T02:12:37.834Z,42.34
2019-05-14T02:15:08.456Z,42.29
2019-05-14T02:17:41.128Z,42.26
2019-05-14T02:20:12.634Z,42.25
2019-05-14T02:22:42.747Z,42.27
2019-05-14T02:25:12.991Z,42.24
2019-05-14T02:27:43.465Z,42.27
2019-05-14T02:30:13.742Z,42.21
2019-05-14T02:32:44.034Z,42.19
2019-05-14T02:35:14.306Z,42.20
2019-05-14T02:37:44.747Z,42.19
2019-05-14T02:40:15.076Z,42.15
2019-05-14T02:42:45.910Z,42.14
2019-05-14T02:45:19.529Z,42.15
2019-05-14T02:47:50.310Z,42.14
2019-05-14T02:50:20.485Z,42.19
2019-05-14T02:52:50.850Z,42.15
2019-05-14T02:55:21.231Z,42.11
2019-05-14T02:57:51.499Z,42.21
2019-05-14T03:00:21.922Z,41.47
2019-05-14T03:02:52.383Z,40.92
2019-05-14T03:05:22.736Z,39.82
2019-05-14T03:07:52.991Z,39.32
2019-05-14T03:10:23.423Z,39.54
2019-05-14T03:12:53.724Z,39.56
2019-05-14T03:15:24.128Z,39.27
2019-05-14T03:17:54.494Z,39.24
2019-05-14T03:20:24.746Z,38.78
2019-05-14T03:23:03.070Z,38.74
2019-05-14T03:25:30.161Z,38.64
2019-05-14T03:27:59.882Z,38.55
2019-05-14T03:30:32.480Z,38.66
2019-05-14T03:33:03.550Z,38.48
2019-05-14T03:35:42.472Z,38.41
2019-05-14T03:38:09.229Z,38.33
2019-05-14T03:40:39.964Z,38.37
2019-05-14T03:43:10.542Z,38.26
2019-05-14T03:45:40.865Z,38.29
2019-05-14T03:48:11.146Z,38.12
2019-05-14T03:50:42.433Z,37.92
2019-05-14T03:53:12.696Z,37.91
2019-05-14T03:55:42.953Z,37.84
2019-05-14T03:58:14.268Z,37.83
2019-05-14T04:00:55.067Z,37.87
2019-05-14T04:03:25.476Z,37.75
2019-05-14T04:05:58.851Z,37.54
2019-05-14T04:08:29.286Z,37.43
2019-05-14T04:11:00.995Z,37.28
2019-05-14T04:13:31.578Z,37.35
2019-05-14T04:16:03.387Z,37.73
2019-05-14T04:18:40.286Z,37.92
2019-05-14T04:21:10.043Z,38.05
2019-05-14T04:23:40.759Z,38.14
2019-05-14T04:26:11.079Z,38.12
2019-05-14T04:28:41.439Z,38.16
2019-05-14T04:31:11.706Z,38.20
2019-05-14T04:33:42.148Z,38.26
2019-05-14T04:36:12.342Z,38.34
2019-05-14T04:38:42.620Z,38.38
2019-05-14T04:41:12.975Z,38.43
2019-05-14T04:43:43.245Z,38.47
2019-05-14T04:46:13.596Z,38.04
2019-05-14T04:48:44.335Z,38.19
2019-05-14T04:51:14.902Z,38.30
2019-05-14T04:53:45.178Z,38.39
2019-05-14T04:56:15.712Z,38.47
2019-05-14T04:58:49.594Z,38.25
2019-05-14T05:01:21.020Z,38.36
2019-05-14T05:03:51.450Z,38.46
2019-05-14T05:06:21.813Z,38.53
2019-05-14T05:08:52.067Z,38.56
2019-05-14T05:11:22.316Z,38.46
2019-05-14T05:13:53.597Z,38.01
2019-05-14T05:16:23.924Z,38.27
2019-05-14T05:18:54.246Z,38.34
2019-05-14T05:21:24.607Z,38.59
2019-05-14T05:23:54.851Z,38.58
2019-05-14T05:26:25.386Z,38.56
2019-05-14T05:29:03.565Z,38.56
2019-05-14T05:31:29.268Z,38.62
2019-05-14T05:33:59.454Z,38.65
2019-05-14T05:36:29.781Z,38.66
2019-05-14T05:39:00.103Z,38.40
2019-05-14T05:41:31.957Z,38.62
2019-05-14T05:44:02.282Z,38.53
2019-05-14T05:46:33.023Z,38.51
2019-05-14T05:49:03.332Z,38.55
2019-05-14T05:51:33.600Z,38.61
2019-05-14T05:54:03.836Z,38.68
2019-05-14T05:56:34.716Z,38.63
2019-05-14T05:59:05.932Z,38.68
2019-05-14T06:01:44.943Z,38.68
2019-05-14T06:04:08.925Z,38.64
2019-05-14T06:06:39.592Z,38.68
2019-05-14T06:09:09.877Z,38.66
2019-05-14T06:11:40.195Z,38.56
2019-05-14T06:14:10.452Z,38.51
2019-05-14T06:16:40.732Z,38.54
2019-05-14T06:19:11.067Z,38.56
2019-05-14T06:21:41.380Z,38.59
2019-05-14T06:24:11.752Z,38.38
2019-05-14T06:26:42.011Z,38.39
2019-05-14T06:29:12.328Z,38.47
2019-05-14T06:31:42.606Z,38.51
2019-05-14T06:34:12.927Z,38.57
2019-05-14T06:36:43.208Z,38.56
2019-05-14T06:39:13.512Z,38.58
2019-05-14T06:41:43.816Z,38.57
2019-05-14T06:44:14.126Z,38.57
2019-05-14T06:46:44.543Z,38.58
2019-05-14T06:49:14.838Z,38.56
2019-05-14T06:51:45.185Z,38.58
2019-05-14T06:54:15.509Z,38.57
2019-05-14T06:56:45.733Z,38.60
2019-05-14T06:59:17.988Z,38.56
2019-05-14T07:01:48.947Z,38.62
2019-05-14T07:04:20.268Z,38.59
2019-05-14T07:06:50.668Z,38.59
2019-05-14T07:09:21.723Z,38.62
2019-05-14T07:11:52.004Z,38.64
2019-05-14T07:14:22.252Z,38.61
2019-05-14T07:16:52.604Z,38.63
2019-05-14T07:19:22.895Z,38.61
2019-05-14T07:21:53.189Z,38.64
2019-05-14T07:24:23.541Z,38.63
2019-05-14T07:26:53.856Z,38.62
2019-05-14T07:29:25.388Z,38.61
2019-05-14T07:31:58.085Z,38.61
2019-05-14T07:34:28.368Z,38.49
2019-05-14T07:36:58.917Z,38.44
2019-05-14T07:39:29.387Z,38.43
2019-05-14T07:41:59.618Z,38.33
2019-05-14T07:44:29.941Z,38.43
2019-05-14T07:47:00.204Z,38.51
2019-05-14T07:49:30.530Z,38.40
2019-05-14T07:52:00.706Z,38.30
2019-05-14T07:54:31.024Z,38.13
2019-05-14T07:57:01.335Z,38.41
2019-05-14T07:59:31.637Z,39.86
2019-05-14T08:02:01.902Z,39.77
2019-05-14T08:04:32.233Z,39.48
2019-05-14T08:07:03.157Z,39.55
2019-05-14T08:09:33.415Z,40.14
2019-05-14T08:12:03.652Z,40.48
2019-05-14T08:14:41.868Z,40.49
2019-05-14T08:17:08.632Z,40.35
2019-05-14T08:19:39.082Z,40.20
2019-05-14T08:22:09.783Z,39.88
2019-05-14T08:24:40.165Z,39.94
2019-05-14T08:27:10.409Z,39.94
2019-05-14T08:29:40.824Z,39.92
2019-05-14T08:32:11.417Z,39.92
2019-05-14T08:34:41.653Z,39.92
2019-05-14T08:37:11.897Z,39.87
2019-05-14T08:39:42.309Z,39.85
2019-05-14T08:42:13.679Z,39.85
2019-05-14T08:44:44.030Z,39.77
2019-05-14T08:47:14.316Z,39.75
2019-05-14T08:49:46.645Z,39.40
2019-05-14T08:52:19.013Z,39.52
2019-05-14T08:54:53.748Z,39.56
2019-05-14T08:57:20.875Z,39.51
2019-05-14T08:59:51.198Z,37.62
2019-05-14T09:02:21.423Z,38.29
2019-05-14T09:04:54.596Z,38.79
2019-05-14T09:07:23.798Z,39.12
2019-05-14T09:09:54.017Z,39.59
2019-05-14T09:12:24.352Z,39.85
2019-05-14T09:14:54.679Z,40.10
2019-05-14T09:17:24.939Z,40.20
2019-05-14T09:20:06.250Z,40.15
2019-05-14T09:22:28.946Z,40.37
2019-05-14T09:25:00.042Z,40.43
2019-05-14T09:27:30.749Z,39.63
2019-05-14T09:30:01.045Z,39.68
2019-05-14T09:32:32.409Z,39.94
2019-05-14T09:35:03.022Z,40.07
2019-05-14T09:37:33.293Z,40.14
2019-05-14T09:40:09.449Z,40.30
2019-05-14T09:42:39.885Z,40.40
2019-05-14T09:45:11.359Z,40.45
2019-05-14T09:47:41.971Z,40.46
2019-05-14T09:50:19.386Z,40.26
2019-05-14T09:52:44.448Z,40.39
2019-05-14T09:55:14.839Z,40.29
2019-05-14T09:57:45.199Z,40.24
2019-05-14T10:00:18.158Z,40.05
2019-05-14T10:02:49.184Z,35.73
2019-05-14T10:05:20.303Z,35.43
2019-05-14T10:07:50.602Z,35.53
2019-05-14T10:10:21.032Z,35.40
2019-05-14T10:12:56.753Z,35.70
2019-05-14T10:15:23.388Z,35.62
2019-05-14T10:17:54.053Z,35.69
2019-05-14T10:20:36.763Z,35.81
2019-05-14T10:22:58.565Z,35.96
2019-05-14T10:25:28.823Z,35.82
2019-05-14T10:27:59.190Z,35.45
2019-05-14T10:30:29.694Z,35.36
2019-05-14T10:33:09.227Z,35.15
2019-05-14T10:35:32.072Z,34.93
2019-05-14T10:38:04.694Z,34.74
2019-05-14T10:40:35.310Z,34.41
2019-05-14T10:43:05.576Z,33.92
2019-05-14T10:45:38.485Z,34.05
2019-05-14T10:48:09.763Z,34.28
2019-05-14T10:50:55.842Z,34.80
2019-05-14T10:53:12.638Z,34.71
2019-05-14T10:55:43.093Z,35.03
2019-05-14T10:58:14.400Z,34.57
2019-05-14T11:00:44.676Z,34.52
2019-05-14T11:03:14.988Z,34.81
2019-05-14T11:05:45.324Z,34.43
2019-05-14T11:08:15.616Z,34.44
2019-05-14T11:10:46.057Z,34.54
2019-05-14T11:13:18.791Z,34.53
2019-05-14T11:15:48.889Z,34.46
2019-05-14T11:18:20.071Z,34.55
2019-05-14T11:20:51.486Z,34.30
2019-05-14T11:23:22.129Z,34.25
2019-05-14T11:25:52.863Z,33.78
2019-05-14T11:28:23.282Z,34.16
2019-05-14T11:30:54.595Z,33.93
2019-05-14T11:33:25.006Z,34.19
2019-05-14T11:35:58.328Z,34.04
2019-05-14T11:38:36.932Z,33.67
2019-05-14T11:41:00.730Z,33.41
2019-05-14T11:43:30.966Z,33.36
2019-05-14T11:46:01.300Z,33.53
2019-05-14T11:48:31.582Z,33.88
2019-05-14T11:51:02.081Z,34.25
2019-05-14T11:53:32.371Z,34.21
2019-05-14T11:56:02.596Z,34.04
2019-05-14T11:58:35.111Z,33.95
2019-05-14T12:01:05.473Z,33.88
2019-05-14T12:03:35.825Z,33.70
2019-05-14T12:06:06.212Z,33.75
2019-05-14T12:08:41.879Z,34.08
2019-05-14T12:11:11.301Z,34.28
2019-05-14T12:13:44.774Z,34.26
2019-05-14T12:16:15.129Z,34.38
2019-05-14T12:18:48.142Z,34.36
2019-05-14T12:21:17.917Z,34.18
2019-05-14T12:23:48.636Z,34.58
2019-05-14T12:26:19.821Z,34.46
2019-05-14T12:28:50.309Z,34.34
2019-05-14T12:31:20.638Z,34.29
2019-05-14T12:33:50.958Z,34.73
2019-05-14T12:36:21.325Z,34.89
2019-05-14T12:38:51.701Z,34.67
2019-05-14T12:41:21.928Z,34.84
2019-05-14T12:43:52.320Z,34.83
2019-05-14T12:46:22.617Z,34.82
2019-05-14T12:48:52.925Z,34.96
2019-05-14T12:51:23.255Z,35.19
2019-05-14T12:53:53.657Z,35.16
2019-05-14T12:56:23.973Z,35.00
2019-05-14T12:58:54.351Z,34.68
2019-05-14T13:01:24.648Z,34.48
2019-05-14T13:03:54.971Z,34.44
2019-05-14T13:06:25.309Z,34.94
2019-05-14T13:08:55.716Z,34.68
2019-05-14T13:11:26.111Z,34.46
2019-05-14T13:13:58.632Z,34.50
2019-05-14T13:16:29.491Z,34.14
2019-05-14T13:19:00.086Z,32.87
2019-05-14T13:21:30.409Z,32.98
2019-05-14T13:24:01.243Z,32.24
2019-05-14T13:26:31.503Z,32.09
2019-05-14T13:29:02.107Z,32.78
2019-05-14T13:31:32.476Z,32.94
2019-05-14T13:34:03.109Z,33.05
2019-05-14T13:36:33.660Z,33.09
2019-05-14T13:39:08.982Z,33.11
2019-05-14T13:41:41.517Z,33.16
2019-05-14T13:44:21.289Z,33.17
2019-05-14T13:46:44.026Z,33.17
2019-05-14T13:49:14.333Z,33.29
2019-05-14T13:51:44.595Z,33.50
2019-05-14T13:54:14.911Z,33.52
2019-05-14T13:56:45.346Z,33.50
2019-05-14T13:59:15.694Z,33.46
2019-05-14T14:01:48.492Z,33.58
2019-05-14T14:04:18.435Z,33.56
2019-05-14T14:06:49.145Z,33.72
2019-05-14T14:09:19.622Z,33.44
2019-05-14T14:11:50.017Z,33.43
2019-05-14T14:14:20.397Z,33.72
2019-05-14T14:16:50.827Z,33.57
2019-05-14T14:19:21.301Z,33.36
2019-05-14T14:21:51.795Z,33.49
2019-05-14T14:24:22.130Z,33.71
2019-05-14T14:26:52.325Z,33.66
2019-05-14T14:29:22.839Z,33.53
2019-05-14T14:31:53.348Z,33.59
2019-05-14T14:34:24.045Z,33.69
2019-05-14T14:36:55.291Z,33.73
2019-05-14T14:39:25.540Z,33.88
2019-05-14T14:41:58.298Z,34.06
2019-05-14T14:44:29.148Z,34.22
2019-05-14T14:47:05.448Z,34.25
2019-05-14T14:49:35.825Z,34.28
2019-05-14T14:52:06.156Z,34.30
2019-05-14T14:54:38.150Z,34.43
2019-05-14T14:57:09.508Z,34.42
2019-05-14T14:59:39.814Z,34.46
2019-05-14T15:02:10.541Z,34.38
2019-05-14T15:04:41.910Z,34.12
2019-05-14T15:07:12.350Z,34.28
2019-05-14T15:09:42.711Z,34.22
2019-05-14T15:12:12.975Z,34.48
2019-05-14T15:14:43.263Z,34.66
2019-05-14T15:17:13.524Z,34.69
2019-05-14T15:19:43.776Z,34.76
2019-05-14T15:22:14.061Z,34.84
2019-05-14T15:24:44.385Z,34.84
2019-05-14T15:27:15.439Z,34.89
2019-05-14T15:29:48.699Z,34.94
2019-05-14T15:32:19.738Z,34.99
2019-05-14T15:34:50.764Z,35.02
2019-05-14T15:37:21.068Z,35.06
2019-05-14T15:39:51.530Z,35.12
2019-05-14T15:42:21.916Z,35.14
2019-05-14T15:44:55.989Z,35.09
2019-05-14T15:47:24.194Z,34.92
2019-05-14T15:49:54.745Z,34.76
2019-05-14T15:52:25.200Z,33.59
2019-05-14T15:54:55.778Z,33.85
2019-05-14T15:57:28.718Z,33.72
2019-05-14T16:00:00.778Z,32.53
2019-05-14T16:02:30.286Z,32.12
2019-05-14T16:05:01.006Z,32.67
2019-05-14T16:07:31.338Z,32.57
2019-05-14T16:10:01.729Z,32.69
2019-05-14T16:12:32.429Z,33.02
2019-05-14T16:15:03.081Z,33.20
2019-05-14T16:17:34.261Z,33.26
2019-05-14T16:20:05.061Z,33.42
2019-05-14T16:22:35.544Z,33.58
2019-05-14T16:25:08.848Z,33.68
2019-05-14T16:27:42.200Z,33.78
2019-05-14T16:30:12.885Z,33.83
2019-05-14T16:32:43.189Z,33.91
2019-05-14T16:35:13.634Z,33.95
2019-05-14T16:37:43.921Z,34.02
2019-05-14T16:40:14.177Z,34.09
2019-05-14T16:42:44.767Z,34.15
2019-05-14T16:45:15.254Z,34.18
2019-05-14T16:47:45.622Z,34.26
2019-05-14T16:50:18.877Z,34.31
2019-05-14T16:52:49.427Z,34.39
2019-05-14T16:55:26.499Z,34.44
2019-05-14T16:57:51.734Z,34.48
2019-05-14T17:00:22.095Z,34.54
2019-05-14T17:02:52.398Z,34.55
2019-05-14T17:05:23.457Z,34.61
2019-05-14T17:07:54.350Z,34.66
2019-05-14T17:10:24.661Z,34.72
2019-05-14T17:12:57.584Z,34.76
2019-05-14T17:15:28.849Z,34.79
2019-05-14T17:17:59.890Z,34.85
2019-05-14T17:20:30.228Z,34.86
2019-05-14T17:23:09.082Z,34.94
2019-05-14T17:25:39.216Z,34.97
2019-05-14T17:28:09.717Z,35.04
2019-05-14T17:30:40.038Z,35.05
2019-05-14T17:33:10.869Z,35.08
2019-05-14T17:35:43.648Z,35.10
2019-05-14T17:38:13.972Z,35.16
2019-05-14T17:40:44.331Z,35.19
2019-05-14T17:43:14.787Z,35.23
2019-05-14T17:45:48.256Z,35.25
2019-05-14T17:48:18.998Z,35.26
2019-05-14T17:50:49.634Z,35.32
2019-05-14T17:53:20.061Z,35.37
2019-05-14T17:55:50.969Z,35.42
2019-05-14T17:58:22.695Z,35.44
2019-05-14T18:00:53.057Z,35.50
2019-05-14T18:03:23.619Z,35.50
2019-05-14T18:05:54.135Z,35.54
2019-05-14T18:08:24.520Z,35.56
2019-05-14T18:10:58.310Z,35.55
2019-05-14T18:13:27.163Z,35.60
2019-05-14T18:15:58.053Z,35.63
2019-05-14T18:18:29.139Z,35.63
2019-05-14T18:21:00.544Z,35.69
2019-05-14T18:23:30.932Z,35.69
2019-05-14T18:26:08.280Z,35.70
2019-05-14T18:28:38.134Z,35.76
2019-05-14T18:31:09.513Z,35.79
2019-05-14T18:33:40.364Z,35.79
2019-05-14T18:36:12.934Z,35.83
2019-05-14T18:38:43.728Z,35.86
2019-05-14T18:41:15.435Z,36.06
2019-05-14T18:43:45.864Z,35.90
2019-05-14T18:46:19.192Z,35.98
2019-05-14T18:48:52.243Z,36.20
2019-05-14T18:51:23.167Z,36.08
2019-05-14T18:53:55.695Z,36.10
2019-05-14T18:56:28.956Z,36.22
2019-05-14T18:58:58.274Z,36.19
2019-05-14T19:01:29.258Z,36.26
2019-05-14T19:03:59.576Z,36.29
2019-05-14T19:06:30.088Z,36.37
2019-05-14T19:09:01.748Z,36.31
2019-05-14T19:11:33.600Z,36.33
2019-05-14T19:14:04.075Z,36.33
2019-05-14T19:16:34.838Z,36.33
2019-05-14T19:19:08.048Z,36.29
2019-05-14T19:21:38.486Z,36.34
2019-05-14T19:24:09.400Z,36.33
2019-05-14T19:26:40.512Z,36.23
2019-05-14T19:29:11.678Z,36.35
2019-05-14T19:31:42.179Z,36.41
2019-05-14T19:34:12.925Z,36.36
2019-05-14T19:36:43.203Z,36.33
2019-05-14T19:39:13.595Z,36.45
2019-05-14T19:41:44.226Z,36.35
2019-05-14T19:44:15.127Z,36.37
2019-05-14T19:46:45.904Z,36.30
2019-05-14T19:49:18.321Z,36.38
2019-05-14T19:51:49.412Z,36.32
2019-05-14T19:54:20.519Z,36.32
2019-05-14T19:56:57.107Z,36.47
2019-05-14T19:59:25.918Z,36.49
2019-05-14T20:01:58.785Z,36.52
2019-05-14T20:04:30.284Z,36.64
2019-05-14T20:07:00.909Z,36.84
2019-05-14T20:09:31.423Z,36.92
2019-05-14T20:12:02.889Z,36.96
2019-05-14T20:14:34.692Z,36.96
2019-05-14T20:17:08.945Z,37.10
2019-05-14T20:19:39.775Z,37.11
2019-05-14T20:22:11.588Z,37.15
2019-05-14T20:24:42.117Z,37.17
2019-05-14T20:27:12.590Z,37.16
2019-05-14T20:29:44.109Z,37.30
2019-05-14T20:32:14.480Z,37.40
2019-05-14T20:34:48.473Z,37.23
2019-05-14T20:37:18.952Z,37.55
2019-05-14T20:39:49.698Z,37.59
2019-05-14T20:42:20.087Z,37.61
2019-05-14T20:44:50.581Z,37.59
2019-05-14T20:47:20.894Z,37.28
2019-05-14T20:49:51.292Z,37.63
2019-05-14T20:52:21.679Z,37.97
2019-05-14T20:54:51.988Z,38.03
2019-05-14T20:57:26.520Z,37.79
2019-05-14T20:59:54.670Z,37.97
2019-05-14T21:02:24.915Z,37.83
2019-05-14T21:04:56.010Z,37.92
2019-05-14T21:07:28.887Z,37.92
2019-05-14T21:09:59.373Z,38.15
2019-05-14T21:12:30.139Z,38.31
2019-05-14T21:15:01.400Z,38.25
2019-05-14T21:17:31.773Z,38.27
2019-05-14T21:20:02.030Z,38.27
2019-05-14T21:22:32.314Z,38.35
2019-05-14T21:25:02.988Z,38.36
2019-05-14T21:27:44.448Z,38.34
2019-05-14T21:30:05.709Z,38.39
2019-05-14T21:32:36.024Z,38.40
2019-05-14T21:35:06.539Z,38.35
2019-05-14T21:37:39.224Z,38.14
2019-05-14T21:40:09.385Z,38.59
2019-05-14T21:42:39.712Z,39.33
2019-05-14T21:45:10.136Z,39.44
2019-05-14T21:47:40.347Z,39.58
2019-05-14T21:50:11.220Z,39.77
2019-05-14T21:52:42.311Z,39.93
2019-05-14T21:55:12.850Z,39.94
2019-05-14T21:57:54.233Z,39.93
2019-05-14T22:00:19.366Z,40.04
2019-05-14T22:02:51.280Z,40.04
2019-05-14T22:05:21.582Z,40.06
2019-05-14T22:07:51.954Z,39.92
2019-05-14T22:10:22.504Z,40.08
2019-05-14T22:12:52.839Z,40.18
2019-05-14T22:15:23.076Z,40.18
2019-05-14T22:17:53.521Z,40.15
2019-05-14T22:20:23.763Z,40.13
2019-05-14T22:22:54.040Z,40.17
2019-05-14T22:25:24.503Z,40.21
2019-05-14T22:28:10.755Z,40.33
2019-05-14T22:30:29.055Z,40.32
2019-05-14T22:33:00.670Z,40.44
2019-05-14T22:35:31.388Z,40.32
2019-05-14T22:38:03.752Z,40.29
2019-05-14T22:40:34.083Z,40.50
2019-05-14T22:43:05.701Z,40.39
2019-05-14T22:45:35.997Z,40.53
2019-05-14T22:48:06.211Z,40.54
2019-05-14T22:50:38.626Z,40.51
2019-05-14T22:53:09.327Z,40.62
2019-05-14T22:55:39.797Z,40.68
2019-05-14T22:58:24.640Z,40.58
2019-05-14T23:00:47.500Z,40.56
2019-05-14T23:03:14.492Z,40.59
2019-05-14T23:05:44.790Z,40.63
2019-05-14T23:08:15.217Z,40.76
2019-05-14T23:10:45.605Z,40.78
2019-05-14T23:13:15.831Z,40.76
2019-05-14T23:15:48.083Z,40.86
2019-05-14T23:18:18.514Z,40.82
2019-05-14T23:20:49.803Z,40.83
2019-05-14T23:23:20.145Z,40.90
2019-05-14T23:25:50.414Z,40.87
2019-05-14T23:28:20.851Z,40.89
2019-05-14T23:30:51.322Z,40.93
2019-05-14T23:33:21.597Z,40.79
2019-05-14T23:35:52.421Z,40.89
2019-05-14T23:38:22.754Z,40.95
2019-05-14T23:40:53.123Z,41.03
2019-05-14T23:43:23.442Z,41.04
2019-05-14T23:45:53.722Z,41.03
2019-05-14T23:48:24.022Z,41.00
2019-05-14T23:50:54.681Z,41.15
2019-05-14T23:53:24.999Z,41.11
2019-05-14T23:55:55.368Z,41.12
2019-05-14T23:58:25.655Z,41.09
